Time;durP1;ratioP1;P1;durP2;ratioP2;P2;SDS_P1;SDS_P2;PMS_P1;PMS_P2;Temp;Humidity;BMP_temperature;BMP_pressure;BME280_temperature;BME280_humidity;BME280_pressure;Samples;Min_cycle;Max_cycle;Signal;HPM_P1;HPM_P2
2022/03/19 00:00:27;;;;;;;;;;;;;;;;;;2211723;59;1921;-74
2022/03/19 00:03:01;;;;;;;;;;;;;;;;;;2211730;67;1116;-74
2022/03/19 00:05:34;;;;;;;;;;;;;;;;;;2211643;67;1286;-74
2022/03/19 00:08:07;;;;;;;;;;;;;;;;;;2212303;59;1176;-74
2022/03/19 00:10:43;;;;;;;;;;;;;;;;;;2212637;67;1295;-73
2022/03/19 00:13:17;;;;;;;;;;;;;;;;;;2212556;67;1073;-74
2022/03/19 00:15:51;;;;;;;;;;;;;;;;;;2211587;67;1160;-74
2022/03/19 00:18:24;;;;;;;;;;;;;;;;;;2211756;59;1283;-74
2022/03/19 00:20:58;;;;;;;;;;;;;;;;;;2210010;53;1980;-72
2022/03/19 00:23:31;;;;;;;;;;;;;;;;;;2207698;59;1244;-70
2022/03/19 00:26:07;;;;;;;;;;;;;;;;;;2209267;59;1270;-69
2022/03/19 00:28:41;;;;;;;;;;;;;;;;;;2207340;59;1323;-69
2022/03/19 00:31:14;;;;;;;;;;;;;;;;;;2210342;67;1257;-70
2022/03/19 00:33:47;;;;;;;;;;;;;;;;;;2209256;59;1301;-69
2022/03/19 00:36:20;;;;;;;;;;;;;;;;;;2210169;67;1318;-69
2022/03/19 00:38:54;;;;;;;;;;;;;;;;;;2208691;67;1393;-70
2022/03/19 00:41:30;;;;;;;;;;;;;;;;;;2207848;59;1944;-69
2022/03/19 00:44:03;;;;;;;;;;;;;;;;;;2210152;67;1062;-69
2022/03/19 00:46:36;;;;;;;;;;;;;;;;;;2209114;59;1256;-69
2022/03/19 00:49:09;;;;;;;;;;;;;;;;;;2209841;59;1898;-69
2022/03/19 00:51:42;;;;;;;;;;;;;;;;;;2209787;67;1291;-70
2022/03/19 00:54:16;;;;;;;;;;;;;;;;;;2209004;59;1242;-69
2022/03/19 00:56:52;;;;;;;;;;;;;;;;;;2208134;59;1705;-70
2022/03/19 00:59:25;;;;;;;;;;;;;;;;;;2209434;67;1945;-69
2022/03/19 01:01:59;;;;;;;;;;;;;;;;;;2207653;59;1940;-69
2022/03/19 01:04:32;;;;;;;;;;;;;;;;;;2207582;59;1858;-69
2022/03/19 01:07:06;;;;;;;;;;;;;;;;;;2205004;67;1241;-69
2022/03/19 01:09:39;;;;;;;;;;;;;;;;;;2209743;59;1243;-69
2022/03/19 01:12:15;;;;;;;;;;;;;;;;;;2209723;59;1149;-69
2022/03/19 01:14:48;;;;;;;;;;;;;;;;;;2208858;59;1283;-69
2022/03/19 01:17:21;;;;;;;;;;;;;;;;;;2209820;67;1262;-69
2022/03/19 01:19:59;;;;;;;;;;;;;;;;;;2208689;59;1979;-69
2022/03/19 01:22:32;;;;;;;;;;;;;;;;;;2208695;67;1161;-69
2022/03/19 01:25:06;;;;;;;;;;;;;;;;;;2208880;67;1237;-70
2022/03/19 01:27:43;;;;;;;;;;;;;;;;;;2209900;59;1256;-70
2022/03/19 01:30:17;;;;;;;;;;;;;;;;;;2209617;67;1299;-69
2022/03/19 01:32:51;;;;;;;;;;;;;;;;;;2209908;67;1256;-69
2022/03/19 01:35:24;;;;;;;;;;;;;;;;;;2210396;59;1243;-69
2022/03/19 01:37:57;;;;;;;;;;;;;;;;;;2203776;59;1768;-70
2022/03/19 01:40:30;;;;;;;;;;;;;;;;;;2207707;59;1989;-69
2022/03/19 01:43:06;;;;;;;;;;;;;;;;;;2207548;67;1135;-69
2022/03/19 01:45:39;;;;;;;;;;;;;;;;;;2209532;59;1147;-69
2022/03/19 01:48:13;;;;;;;;;;;;;;;;;;2208298;59;1883;-70
2022/03/19 01:50:46;;;;;;;;;;;;;;;;;;2210140;59;1254;-69
2022/03/19 01:53:19;;;;;;;;;;;;;;;;;;2209964;67;1010;-69
2022/03/19 01:55:53;;;;;;;;;;;;;;;;;;2209260;59;1270;-69
2022/03/19 01:58:29;;;;;;;;;;;;;;;;;;2211296;59;1291;-69
2022/03/19 02:01:02;;;;;;;;;;;;;;;;;;2207163;59;1988;-69
2022/03/19 02:03:36;;;;;;;;;;;;;;;;;;2206180;59;1932;-69
2022/03/19 02:06:09;;;;;;;;;;;;;;;;;;2211200;67;1112;-69
2022/03/19 02:08:44;;;;;;;;;;;;;;;;;;2209067;59;1190;-69
2022/03/19 02:11:17;;;;;;;;;;;;;;;;;;2211066;59;1239;-71
2022/03/19 02:13:53;;;;;;;;;;;;;;;;;;2209380;67;1128;-69
2022/03/19 02:16:26;;;;;;;;;;;;;;;;;;2210405;67;1280;-69
2022/03/19 02:18:59;;;;;;;;;;;;;;;;;;2210861;67;1006;-69
2022/03/19 02:21:40;;;;;;;;;;;;;;;;;;2205837;59;1929;-69
2022/03/19 02:27:06;;;;;;;;;;;;;;;;;;2211705;59;1167;-69
2022/03/19 02:29:39;;;;;;;;;;;;;;;;;;2209736;67;1254;-70
2022/03/19 02:32:12;;;;;;;;;;;;;;;;;;2210489;59;1221;-69
2022/03/19 02:34:45;;;;;;;;;;;;;;;;;;2207191;67;1266;-69
2022/03/19 02:37:19;;;;;;;;;;;;;;;;;;2209664;59;1175;-69
2022/03/19 02:39:54;;;;;;;;;;;;;;;;;;2208611;59;1648;-69
2022/03/19 02:42:28;;;;;;;;;;;;;;;;;;2207956;67;1110;-69
2022/03/19 02:45:01;;;;;;;;;;;;;;;;;;2208831;67;1057;-69
2022/03/19 02:47:34;;;;;;;;;;;;;;;;;;2208420;59;1753;-69
2022/03/19 02:50:07;;;;;;;;;;;;;;;;;;2208953;59;1869;-69
2022/03/19 02:52:40;;;;;;;;;;;;;;;;;;2206633;67;1406;-69
2022/03/19 02:55:16;;;;;;;;;;;;;;;;;;2206194;67;1410;-69
2022/03/19 02:57:49;;;;;;;;;;;;;;;;;;2209989;67;1275;-69
2022/03/19 03:00:23;;;;;;;;;;;;;;;;;;2205653;59;1941;-69
2022/03/19 03:02:56;;;;;;;;;;;;;;;;;;2208241;67;1264;-69
2022/03/19 03:05:29;;;;;;;;;;;;;;;;;;2208685;59;1172;-69
2022/03/19 03:08:02;;;;;;;;;;;;;;;;;;2209444;59;1066;-69
2022/03/19 03:10:38;;;;;;;;;;;;;;;;;;2209472;67;1192;-69
2022/03/19 03:13:11;;;;;;;;;;;;;;;;;;2209247;67;1319;-69
2022/03/19 03:15:45;;;;;;;;;;;;;;;;;;2209757;67;1338;-69
2022/03/19 03:18:19;;;;;;;;;;;;;;;;;;2210109;67;1314;-69
2022/03/19 03:20:52;;;;;;;;;;;;;;;;;;2209072;59;1928;-70
2022/03/19 03:23:26;;;;;;;;;;;;;;;;;;2207219;67;1306;-69
2022/03/19 03:26:02;;;;;;;;;;;;;;;;;;2210202;67;1110;-69
2022/03/19 03:28:35;;;;;;;;;;;;;;;;;;2205706;67;2123;-69
2022/03/19 03:31:08;;;;;;;;;;;;;;;;;;2209361;67;1264;-69
2022/03/19 03:33:41;;;;;;;;;;;;;;;;;;2209727;67;1248;-69
2022/03/19 03:36:14;;;;;;;;;;;;;;;;;;2208800;67;1203;-69
2022/03/19 03:38:48;;;;;;;;;;;;;;;;;;2209332;67;1391;-69
2022/03/19 03:41:23;;;;;;;;;;;;;;;;;;2207781;59;1929;-69
2022/03/19 03:43:57;;;;;;;;;;;;;;;;;;2209744;59;1289;-69
2022/03/19 03:46:30;;;;;;;;;;;;;;;;;;2206628;67;1403;-69
2022/03/19 03:49:03;;;;;;;;;;;;;;;;;;2208753;67;2242;-69
2022/03/19 03:51:36;;;;;;;;;;;;;;;;;;2209927;67;1326;-69
2022/03/19 03:54:10;;;;;;;;;;;;;;;;;;2209573;59;1232;-69
2022/03/19 03:56:46;;;;;;;;;;;;;;;;;;2210156;67;1240;-69
2022/03/19 03:59:19;;;;;;;;;;;;;;;;;;2209781;67;1348;-69
2022/03/19 04:01:52;;;;;;;;;;;;;;;;;;2208022;59;1980;-69
2022/03/19 04:04:26;;;;;;;;;;;;;;;;;;2208845;67;1299;-69
2022/03/19 04:06:59;;;;;;;;;;;;;;;;;;2209173;59;1065;-69
2022/03/19 04:09:32;;;;;;;;;;;;;;;;;;2209035;59;1241;-69
2022/03/19 04:12:09;;;;;;;;;;;;;;;;;;2209591;67;1229;-69
2022/03/19 04:14:42;;;;;;;;;;;;;;;;;;2209053;67;1199;-69
2022/03/19 04:17:15;;;;;;;;;;;;;;;;;;2210118;59;1240;-69
2022/03/19 04:19:48;;;;;;;;;;;;;;;;;;2208465;59;1924;-69
2022/03/19 04:22:22;;;;;;;;;;;;;;;;;;2208068;59;2008;-69
2022/03/19 04:24:55;;;;;;;;;;;;;;;;;;2209750;59;1200;-69
2022/03/19 04:27:30;;;;;;;;;;;;;;;;;;2210065;67;1222;-69
2022/03/19 04:30:04;;;;;;;;;;;;;;;;;;2208606;67;1279;-69
2022/03/19 04:32:41;;;;;;;;;;;;;;;;;;2209665;59;1246;-69
2022/03/19 04:38:05;;;;;;;;;;;;;;;;;;2208681;67;1209;-69
2022/03/19 04:40:39;;;;;;;;;;;;;;;;;;2208605;59;1975;-69
2022/03/19 04:43:15;;;;;;;;;;;;;;;;;;2209039;59;1090;-70
2022/03/19 04:45:48;;;;;;;;;;;;;;;;;;2208854;67;1244;-69
2022/03/19 04:48:21;;;;;;;;;;;;;;;;;;2209172;59;1899;-69
2022/03/19 04:50:54;;;;;;;;;;;;;;;;;;2209688;59;1922;-69
2022/03/19 04:53:27;;;;;;;;;;;;;;;;;;2209452;59;1377;-69
2022/03/19 04:56:00;;;;;;;;;;;;;;;;;;2209901;67;1129;-69
2022/03/19 04:58:37;;;;;;;;;;;;;;;;;;2209718;67;1192;-69
2022/03/19 05:01:11;;;;;;;;;;;;;;;;;;2207961;59;1923;-69
2022/03/19 05:03:44;;;;;;;;;;;;;;;;;;2209296;67;1231;-69
2022/03/19 05:06:17;;;;;;;;;;;;;;;;;;2209159;59;1169;-69
2022/03/19 05:11:12;;;;;;;;;;;;;;;;;;2209560;67;1338;-69
2022/03/19 05:11:41;;;;;;;;;;;;;;;;;;2210414;67;1272;-69
2022/03/19 05:14:17;;;;;;;;;;;;;;;;;;2210185;67;1245;-69
2022/03/19 05:16:50;;;;;;;;;;;;;;;;;;2210054;67;1310;-69
2022/03/19 05:19:24;;;;;;;;;;;;;;;;;;2209537;59;1381;-69
2022/03/19 05:21:57;;;;;;;;;;;;;;;;;;2208701;59;2004;-70
2022/03/19 05:24:31;;;;;;;;;;;;;;;;;;2208499;67;1144;-69
2022/03/19 05:27:04;;;;;;;;;;;;;;;;;;2209690;67;1303;-69
2022/03/19 05:29:40;;;;;;;;;;;;;;;;;;2208981;59;1294;-70
2022/03/19 05:32:13;;;;;;;;;;;;;;;;;;2210763;67;1212;-69
2022/03/19 05:34:47;;;;;;;;;;;;;;;;;;2211288;67;1330;-69
2022/03/19 05:37:20;;;;;;;;;;;;;;;;;;2209426;59;1282;-69
2022/03/19 05:39:55;;;;;;;;;;;;;;;;;;2208516;59;1688;-69
2022/03/19 05:42:28;;;;;;;;;;;;;;;;;;2206696;67;1992;-71
2022/03/19 05:45:04;;;;;;;;;;;;;;;;;;2210403;59;1129;-69
2022/03/19 05:47:37;;;;;;;;;;;;;;;;;;2209325;67;1878;-69
2022/03/19 05:50:11;;;;;;;;;;;;;;;;;;2210418;59;2435;-69
2022/03/19 05:52:45;;;;;;;;;;;;;;;;;;2209655;67;1296;-69
2022/03/19 05:55:18;;;;;;;;;;;;;;;;;;2208800;59;1576;-69
2022/03/19 05:57:51;;;;;;;;;;;;;;;;;;2209316;67;1181;-70
2022/03/19 06:00:27;;;;;;;;;;;;;;;;;;2208931;59;1576;-70
2022/03/19 06:03:00;;;;;;;;;;;;;;;;;;2208047;67;1931;-69
2022/03/19 06:05:34;;;;;;;;;;;;;;;;;;2205614;67;2065;-70
2022/03/19 06:08:07;;;;;;;;;;;;;;;;;;2209540;67;1215;-69
2022/03/19 06:10:40;;;;;;;;;;;;;;;;;;2209774;59;1289;-69
2022/03/19 06:13:13;;;;;;;;;;;;;;;;;;2210370;67;1270;-69
2022/03/19 06:15:49;;;;;;;;;;;;;;;;;;2209836;67;1254;-69
2022/03/19 06:18:22;;;;;;;;;;;;;;;;;;2210069;59;1600;-69
2022/03/19 06:20:56;;;;;;;;;;;;;;;;;;2209045;59;1612;-69
2022/03/19 06:23:29;;;;;;;;;;;;;;;;;;2208814;59;1928;-69
2022/03/19 06:26:02;;;;;;;;;;;;;;;;;;2210606;67;1184;-68
2022/03/19 06:28:35;;;;;;;;;;;;;;;;;;2208086;59;1760;-69
2022/03/19 06:31:11;;;;;;;;;;;;;;;;;;2210479;67;1259;-69
2022/03/19 06:33:44;;;;;;;;;;;;;;;;;;2210131;67;1294;-69
2022/03/19 06:39:03;;;;;;;;;;;;;;;;;;2202144;67;1390;-69
2022/03/19 06:41:36;;;;;;;;;;;;;;;;;;2207046;59;1932;-69
2022/03/19 06:44:09;;;;;;;;;;;;;;;;;;2209545;67;1218;-69
2022/03/19 06:46:45;;;;;;;;;;;;;;;;;;2209897;67;1268;-69
2022/03/19 06:49:18;;;;;;;;;;;;;;;;;;2210057;59;2061;-69
2022/03/19 06:51:51;;;;;;;;;;;;;;;;;;2210257;67;1259;-72
2022/03/19 06:54:24;;;;;;;;;;;;;;;;;;2209605;67;1251;-71
2022/03/19 06:56:57;;;;;;;;;;;;;;;;;;2210517;59;1168;-72
2022/03/19 06:59:31;;;;;;;;;;;;;;;;;;2208856;67;1235;-72
2022/03/19 07:02:07;;;;;;;;;;;;;;;;;;2208613;59;2099;-71
2022/03/19 07:04:40;;;;;;;;;;;;;;;;;;2209859;67;1101;-72
2022/03/19 07:07:13;;;;;;;;;;;;;;;;;;2209302;67;1282;-72
2022/03/19 07:09:46;;;;;;;;;;;;;;;;;;2210130;67;1311;-72
2022/03/19 07:12:19;;;;;;;;;;;;;;;;;;2210303;59;1208;-72
2022/03/19 07:14:53;;;;;;;;;;;;;;;;;;2209777;59;1325;-71
2022/03/19 07:17:28;;;;;;;;;;;;;;;;;;2210378;59;1256;-72
2022/03/19 07:20:02;;;;;;;;;;;;;;;;;;2206042;59;1651;-69
2022/03/19 07:22:47;;;;;;;;;;;;;;;;;;2209832;67;1933;-69
2022/03/19 07:25:21;;;;;;;;;;;;;;;;;;2210348;67;1318;-69
2022/03/19 07:27:55;;;;;;;;;;;;;;;;;;2209214;67;1184;-70
2022/03/19 07:30:29;;;;;;;;;;;;;;;;;;2207924;59;1736;-69
2022/03/19 07:33:05;;;;;;;;;;;;;;;;;;2209905;67;1206;-69
2022/03/19 07:35:38;;;;;;;;;;;;;;;;;;2209808;67;1224;-69
2022/03/19 07:38:11;;;;;;;;;;;;;;;;;;2208874;59;1247;-69
2022/03/19 07:43:33;;;;;;;;;;;;;;;;;;2207413;59;1933;-69
2022/03/19 07:46:06;;;;;;;;;;;;;;;;;;2209394;59;1225;-69
2022/03/19 07:48:42;;;;;;;;;;;;;;;;;;2209852;59;1941;-69
2022/03/19 07:51:15;;;;;;;;;;;;;;;;;;2210070;59;1260;-69
2022/03/19 07:53:48;;;;;;;;;;;;;;;;;;2209747;59;1249;-69
2022/03/19 07:56:22;;;;;;;;;;;;;;;;;;2210008;59;1150;-70
2022/03/19 07:58:55;;;;;;;;;;;;;;;;;;2208695;59;2186;-70
2022/03/19 08:01:28;;;;;;;;;;;;;;;;;;2208401;59;1602;-70
2022/03/19 08:04:04;;;;;;;;;;;;;;;;;;2209108;59;1937;-70
2022/03/19 08:06:37;;;;;;;;;;;;;;;;;;2210260;59;1186;-70
2022/03/19 08:09:12;;;;;;;;;;;;;;;;;;2209558;67;1197;-70
2022/03/19 08:11:45;;;;;;;;;;;;;;;;;;2210520;67;1237;-70
2022/03/19 08:14:19;;;;;;;;;;;;;;;;;;2210170;59;1174;-70
2022/03/19 08:16:52;;;;;;;;;;;;;;;;;;2209993;59;1116;-70
2022/03/19 08:19:29;;;;;;;;;;;;;;;;;;2210265;67;1187;-70
2022/03/19 08:22:02;;;;;;;;;;;;;;;;;;2208958;59;1932;-70
2022/03/19 08:24:35;;;;;;;;;;;;;;;;;;2209601;67;1298;-70
2022/03/19 08:27:09;;;;;;;;;;;;;;;;;;2211271;67;1107;-70
2022/03/19 08:29:42;;;;;;;;;;;;;;;;;;2210925;67;1242;-70
2022/03/19 08:32:15;;;;;;;;;;;;;;;;;;2207958;59;1623;-69
2022/03/19 08:34:52;;;;;;;;;;;;;;;;;;2209378;67;1352;-70
2022/03/19 08:37:26;;;;;;;;;;;;;;;;;;2209785;67;1247;-70
2022/03/19 08:42:53;;;;;;;;;;;;;;;;;;2208772;59;1933;-70
2022/03/19 08:45:26;;;;;;;;;;;;;;;;;;2208675;67;1269;-70
2022/03/19 08:48:03;;;;;;;;;;;;;;;;;;2209223;59;1885;-70
2022/03/19 08:50:45;;;;;;;;;;;;;;;;;;2209319;67;1229;-70
2022/03/19 08:53:19;;;;;;;;;;;;;;;;;;2209363;59;2276;-70
2022/03/19 08:55:53;;;;;;;;;;;;;;;;;;2210686;59;1232;-70
2022/03/19 08:58:26;;;;;;;;;;;;;;;;;;2210886;59;2009;-70
2022/03/19 09:01:00;;;;;;;;;;;;;;;;;;2207992;59;1704;-70
2022/03/19 09:03:34;;;;;;;;;;;;;;;;;;2209158;59;1905;-70
2022/03/19 09:06:14;;;;;;;;;;;;;;;;;;2209805;59;1105;-70
2022/03/19 09:08:49;;;;;;;;;;;;;;;;;;2209027;59;1302;-70
2022/03/19 09:11:23;;;;;;;;;;;;;;;;;;2209126;67;1278;-70
2022/03/19 09:13:57;;;;;;;;;;;;;;;;;;2205664;67;1213;-70
2022/03/19 09:16:30;;;;;;;;;;;;;;;;;;2205059;59;2355;-70
2022/03/19 09:19:03;;;;;;;;;;;;;;;;;;2209165;59;2234;-70
2022/03/19 09:21:40;;;;;;;;;;;;;;;;;;2206909;59;2091;-70
2022/03/19 09:24:15;;;;;;;;;;;;;;;;;;2208000;59;2013;-70
2022/03/19 09:26:48;;;;;;;;;;;;;;;;;;2208789;59;1221;-70
2022/03/19 09:29:21;;;;;;;;;;;;;;;;;;2209390;67;1116;-69
2022/03/19 09:31:55;;;;;;;;;;;;;;;;;;2208694;59;1238;-70
2022/03/19 09:34:30;;;;;;;;;;;;;;;;;;2208261;67;1290;-70
2022/03/19 09:37:06;;;;;;;;;;;;;;;;;;2209717;67;1154;-69
2022/03/19 09:39:39;;;;;;;;;;;;;;;;;;2205403;59;1883;-69
2022/03/19 09:42:14;;;;;;;;;;;;;;;;;;2207599;59;2141;-70
2022/03/19 09:44:48;;;;;;;;;;;;;;;;;;2208262;67;1949;-69
2022/03/19 09:47:21;;;;;;;;;;;;;;;;;;2209162;59;2127;-70
2022/03/19 09:49:55;;;;;;;;;;;;;;;;;;2207436;59;2037;-70
2022/03/19 09:52:31;;;;;;;;;;;;;;;;;;2208181;59;1254;-69
2022/03/19 09:55:05;;;;;;;;;;;;;;;;;;2209178;59;1250;-70
2022/03/19 09:57:38;;;;;;;;;;;;;;;;;;2209336;59;1136;-70
2022/03/19 10:00:12;;;;;;;;;;;;;;;;;;2208279;59;1692;-70
2022/03/19 10:02:52;;;;;;;;;;;;;;;;;;2207698;59;1987;-71
2022/03/19 10:11:06;;;;;;;;;;;;;;;;;;2207606;59;1640;-69
2022/03/19 10:13:40;;;;;;;;;;;;;;;;;;2208489;59;1181;-70
2022/03/19 10:16:14;;;;;;;;;;;;;;;;;;2209529;67;1352;-70
2022/03/19 10:18:58;;;;;;;;;;;;;;;;;;2210136;67;1214;-70
2022/03/19 10:21:32;;;;;;;;;;;;;;;;;;2207785;59;1506;-70
2022/03/19 10:24:09;;;;;;;;;;;;;;;;;;2208845;59;1991;-70
2022/03/19 10:26:42;;;;;;;;;;;;;;;;;;2210490;59;1211;-70
2022/03/19 10:29:17;;;;;;;;;;;;;;;;;;2208520;59;1820;-70
2022/03/19 10:31:50;;;;;;;;;;;;;;;;;;2206539;67;1385;-70
2022/03/19 10:34:24;;;;;;;;;;;;;;;;;;2210075;59;1233;-70
2022/03/19 10:36:57;;;;;;;;;;;;;;;;;;2209270;59;1230;-70
2022/03/19 10:39:36;;;;;;;;;;;;;;;;;;2209567;67;1230;-70
2022/03/19 10:42:16;;;;;;;;;;;;;;;;;;2207413;59;1429;-70
2022/03/19 10:44:49;;;;;;;;;;;;;;;;;;2208846;67;2005;-70
2022/03/19 10:47:23;;;;;;;;;;;;;;;;;;2209215;59;2024;-70
2022/03/19 10:50:01;;;;;;;;;;;;;;;;;;2210501;59;2111;-70
2022/03/19 10:52:36;;;;;;;;;;;;;;;;;;2208501;67;1220;-70
2022/03/19 10:55:13;;;;;;;;;;;;;;;;;;2209753;67;1075;-70
2022/03/19 10:57:47;;;;;;;;;;;;;;;;;;2209972;67;1263;-69
2022/03/19 11:00:20;;;;;;;;;;;;;;;;;;2208985;59;1752;-70
2022/03/19 11:03:00;;;;;;;;;;;;;;;;;;2209141;67;1930;-70
2022/03/19 11:05:36;;;;;;;;;;;;;;;;;;2209472;67;1122;-70
2022/03/19 11:08:10;;;;;;;;;;;;;;;;;;2209198;67;1248;-69
2022/03/19 11:10:47;;;;;;;;;;;;;;;;;;2207458;67;1301;-70
2022/03/19 11:13:23;;;;;;;;;;;;;;;;;;2208948;59;1247;-69
2022/03/19 11:15:58;;;;;;;;;;;;;;;;;;2209715;59;1135;-69
2022/03/19 11:18:31;;;;;;;;;;;;;;;;;;2209504;67;1299;-69
2022/03/19 11:21:04;;;;;;;;;;;;;;;;;;2207781;59;2291;-69
2022/03/19 11:23:43;;;;;;;;;;;;;;;;;;2208169;59;1924;-69
2022/03/19 11:26:23;;;;;;;;;;;;;;;;;;2211350;59;1214;-70
2022/03/19 11:28:56;;;;;;;;;;;;;;;;;;2208922;67;1232;-70
2022/03/19 11:31:30;;;;;;;;;;;;;;;;;;2208164;59;1266;-70
2022/03/19 11:34:15;;;;;;;;;;;;;;;;;;2208669;67;1256;-70
2022/03/19 11:36:56;;;;;;;;;;;;;;;;;;2210016;67;1241;-70
2022/03/19 11:39:29;;;;;;;;;;;;;;;;;;2208968;67;1242;-70
2022/03/19 11:42:09;;;;;;;;;;;;;;;;;;2208722;59;1677;-69
2022/03/19 11:44:50;;;;;;;;;;;;;;;;;;2209425;59;1938;-70
2022/03/19 11:47:33;;;;;;;;;;;;;;;;;;2205544;59;2065;-69
2022/03/19 11:50:19;;;;;;;;;;;;;;;;;;2209041;59;2352;-69
2022/03/19 11:53:13;;;;;;;;;;;;;;;;;;2209521;67;1186;-70
2022/03/19 11:55:48;;;;;;;;;;;;;;;;;;2208476;60;1274;-70
2022/03/19 11:58:36;;;;;;;;;;;;;;;;;;2210288;59;1170;-70
2022/03/19 12:01:18;;;;;;;;;;;;;;;;;;2207070;59;1573;-70
2022/03/19 12:04:17;;;;;;;;;;;;;;;;;;2208868;59;1928;-70
2022/03/19 12:07:11;;;;;;;;;;;;;;;;;;2209604;67;1252;-70
2022/03/19 12:10:03;;;;;;;;;;;;;;;;;;2209731;67;1255;-69
2022/03/19 12:12:45;;;;;;;;;;;;;;;;;;2208809;59;1217;-70
2022/03/19 12:15:51;;;;;;;;;;;;;;;;;;2208171;59;1090;-70
2022/03/19 12:18:28;;;;;;;;;;;;;;;;;;2196428;67;1174;-69
2022/03/19 12:21:03;;;;;;;;;;;;;;;;;;2195356;59;1797;-69
2022/03/19 12:23:44;;;;;;;;;;;;;;;;;;2193325;67;1997;-70
2022/03/19 12:26:19;;;;;;;;;;;;;;;;;;2196763;67;1108;-70
2022/03/19 12:29:09;;;;;;;;;;;;;;;;;;2196796;59;1174;-69
2022/03/19 12:31:50;;;;;;;;;;;;;;;;;;2196057;59;1328;-69
2022/03/19 12:34:26;;;;;;;;;;;;;;;;;;2195106;59;1162;-69
2022/03/19 12:37:01;;;;;;;;;;;;;;;;;;2205739;59;1138;-70
2022/03/19 12:39:34;;;;;;;;;;;;;;;;;;2207664;59;1674;-69
2022/03/19 12:42:08;;;;;;;;;;;;;;;;;;2208762;59;1607;-70
2022/03/19 12:44:59;;;;;;;;;;;;;;;;;;2209155;67;1927;-70
2022/03/19 12:48:00;;;;;;;;;;;;;;;;;;2208691;60;1944;-69
2022/03/19 12:50:36;;;;;;;;;;;;;;;;;;2207422;59;1895;-69
2022/03/19 12:53:20;;;;;;;;;;;;;;;;;;2206468;59;1140;-70
2022/03/19 12:56:15;;;;;;;;;;;;;;;;;;2209267;67;1082;-70
2022/03/19 12:58:49;;;;;;;;;;;;;;;;;;2209930;59;1116;-69
2022/03/19 13:01:24;;;;;;;;;;;;;;;;;;2207503;59;1590;-69
2022/03/19 13:04:01;;;;;;;;;;;;;;;;;;2208221;67;1940;-70
2022/03/19 13:06:45;;;;;;;;;;;;;;;;;;2209703;59;1405;-70
2022/03/19 13:09:18;;;;;;;;;;;;;;;;;;2209518;59;1149;-69
2022/03/19 13:11:54;;;;;;;;;;;;;;;;;;2206754;67;1275;-69
2022/03/19 13:14:31;;;;;;;;;;;;;;;;;;2209539;67;1144;-70
2022/03/19 13:17:07;;;;;;;;;;;;;;;;;;2206257;67;1480;-69
2022/03/19 13:19:40;;;;;;;;;;;;;;;;;;2208998;59;1715;-69
2022/03/19 13:22:19;;;;;;;;;;;;;;;;;;2209456;67;1043;-69
2022/03/19 13:24:55;;;;;;;;;;;;;;;;;;2209650;59;1930;-69
2022/03/19 13:27:30;;;;;;;;;;;;;;;;;;2207958;59;1587;-69
2022/03/19 13:30:11;;;;;;;;;;;;;;;;;;2208883;67;1259;-69
2022/03/19 13:32:45;;;;;;;;;;;;;;;;;;2209252;67;1177;-69
2022/03/19 13:35:36;;;;;;;;;;;;;;;;;;2209476;67;1258;-69
2022/03/19 13:38:22;;;;;;;;;;;;;;;;;;2208174;67;1216;-70
2022/03/19 13:41:10;;;;;;;;;;;;;;;;;;2208329;59;1536;-70
2022/03/19 13:43:44;;;;;;;;;;;;;;;;;;2209037;59;2041;-69
2022/03/19 13:46:18;;;;;;;;;;;;;;;;;;2208394;59;1212;-69
2022/03/19 13:48:52;;;;;;;;;;;;;;;;;;2207732;59;1997;-69
2022/03/19 13:51:25;;;;;;;;;;;;;;;;;;2208095;59;1220;-69
2022/03/19 13:54:02;;;;;;;;;;;;;;;;;;2209465;59;1095;-69
2022/03/19 13:56:35;;;;;;;;;;;;;;;;;;2209978;67;1198;-69
2022/03/19 13:59:08;;;;;;;;;;;;;;;;;;2209508;59;1947;-69
2022/03/19 14:01:43;;;;;;;;;;;;;;;;;;2208728;59;1927;-69
2022/03/19 14:04:31;;;;;;;;;;;;;;;;;;2209697;67;1929;-70
2022/03/19 14:07:10;;;;;;;;;;;;;;;;;;2208823;59;1213;-69
2022/03/19 14:09:48;;;;;;;;;;;;;;;;;;2210858;59;1171;-69
2022/03/19 14:12:34;;;;;;;;;;;;;;;;;;2210449;67;1064;-69
2022/03/19 14:15:12;;;;;;;;;;;;;;;;;;2208012;67;1176;-69
2022/03/19 14:17:46;;;;;;;;;;;;;;;;;;2210778;67;1295;-69
2022/03/19 14:20:23;;;;;;;;;;;;;;;;;;2208248;59;1764;-69
2022/03/19 14:22:57;;;;;;;;;;;;;;;;;;2209423;67;1267;-69
2022/03/19 14:25:38;;;;;;;;;;;;;;;;;;2208976;59;3024;-69
2022/03/19 14:28:16;;;;;;;;;;;;;;;;;;2208684;59;2603;-69
2022/03/19 14:30:50;;;;;;;;;;;;;;;;;;2204886;59;2049;-69
2022/03/19 14:33:29;;;;;;;;;;;;;;;;;;2210451;59;1131;-69
2022/03/19 14:36:03;;;;;;;;;;;;;;;;;;2209597;59;1190;-69
2022/03/19 14:38:40;;;;;;;;;;;;;;;;;;2208201;59;1551;-69
2022/03/19 14:41:23;;;;;;;;;;;;;;;;;;2208575;59;1583;-69
2022/03/19 14:43:57;;;;;;;;;;;;;;;;;;2210373;59;1360;-69
2022/03/19 14:46:30;;;;;;;;;;;;;;;;;;2207868;59;1922;-69
2022/03/19 14:49:03;;;;;;;;;;;;;;;;;;2208527;59;2061;-69
2022/03/19 14:51:36;;;;;;;;;;;;;;;;;;2210022;67;1305;-69
2022/03/19 14:54:09;;;;;;;;;;;;;;;;;;2209237;67;1239;-70
2022/03/19 14:56:46;;;;;;;;;;;;;;;;;;2210358;59;1228;-70
2022/03/19 14:59:19;;;;;;;;;;;;;;;;;;2209119;59;1755;-69
2022/03/19 15:01:52;;;;;;;;;;;;;;;;;;2208787;59;1887;-69
2022/03/19 15:04:25;;;;;;;;;;;;;;;;;;2207134;67;1916;-69
2022/03/19 15:06:58;;;;;;;;;;;;;;;;;;2209880;67;1224;-69
2022/03/19 15:09:32;;;;;;;;;;;;;;;;;;2208178;59;1583;-70
2022/03/19 15:12:08;;;;;;;;;;;;;;;;;;2209842;59;1292;-69
2022/03/19 15:14:42;;;;;;;;;;;;;;;;;;2209764;59;1188;-69
2022/03/19 15:17:16;;;;;;;;;;;;;;;;;;2206454;67;1293;-69
2022/03/19 15:19:49;;;;;;;;;;;;;;;;;;2209094;59;1599;-69
2022/03/19 15:22:22;;;;;;;;;;;;;;;;;;2208636;67;1169;-69
2022/03/19 15:24:55;;;;;;;;;;;;;;;;;;2208688;67;1926;-69
2022/03/19 15:27:31;;;;;;;;;;;;;;;;;;2206522;67;1504;-69
2022/03/19 15:30:05;;;;;;;;;;;;;;;;;;2207244;59;1258;-69
2022/03/19 15:32:39;;;;;;;;;;;;;;;;;;2208871;59;1236;-69
2022/03/19 15:35:13;;;;;;;;;;;;;;;;;;2208450;67;1174;-69
2022/03/19 15:37:47;;;;;;;;;;;;;;;;;;2208886;67;1386;-69
2022/03/19 15:40:20;;;;;;;;;;;;;;;;;;2208488;59;1701;-69
2022/03/19 15:42:56;;;;;;;;;;;;;;;;;;2207578;67;1191;-69
2022/03/19 15:45:29;;;;;;;;;;;;;;;;;;2208918;59;1925;-69
2022/03/19 15:48:02;;;;;;;;;;;;;;;;;;2208655;59;1928;-69
2022/03/19 15:50:39;;;;;;;;;;;;;;;;;;2206408;67;1516;-69
2022/03/19 15:53:12;;;;;;;;;;;;;;;;;;2208758;67;1188;-69
2022/03/19 15:55:45;;;;;;;;;;;;;;;;;;2209130;67;1192;-69
2022/03/19 15:58:21;;;;;;;;;;;;;;;;;;2209267;59;1174;-69
2022/03/19 16:00:54;;;;;;;;;;;;;;;;;;2206700;59;2018;-70
2022/03/19 16:03:27;;;;;;;;;;;;;;;;;;2209395;67;1352;-69
2022/03/19 16:06:00;;;;;;;;;;;;;;;;;;2209449;59;1941;-69
2022/03/19 16:08:33;;;;;;;;;;;;;;;;;;2207957;59;1181;-69
2022/03/19 16:11:07;;;;;;;;;;;;;;;;;;2209397;67;1285;-69
2022/03/19 16:13:43;;;;;;;;;;;;;;;;;;2208906;67;1173;-70
2022/03/19 16:16:16;;;;;;;;;;;;;;;;;;2208859;67;1117;-69
2022/03/19 16:18:49;;;;;;;;;;;;;;;;;;2209836;67;1315;-69
2022/03/19 16:21:23;;;;;;;;;;;;;;;;;;2207414;59;1717;-70
2022/03/19 16:23:56;;;;;;;;;;;;;;;;;;2208343;67;1319;-70
2022/03/19 16:26:29;;;;;;;;;;;;;;;;;;2209547;67;1928;-69
2022/03/19 16:29:05;;;;;;;;;;;;;;;;;;2207601;59;1650;-69
2022/03/19 16:31:39;;;;;;;;;;;;;;;;;;2206344;67;1268;-69
2022/03/19 16:34:12;;;;;;;;;;;;;;;;;;2210191;59;2197;-70
2022/03/19 16:36:51;;;;;;;;;;;;;;;;;;2211064;59;1449;-70
2022/03/19 16:39:32;;;;;;;;;;;;;;;;;;2208235;67;1268;-70
2022/03/19 16:42:09;;;;;;;;;;;;;;;;;;2208066;59;2067;-70
2022/03/19 16:44:45;;;;;;;;;;;;;;;;;;2208773;67;1180;-70
2022/03/19 16:47:18;;;;;;;;;;;;;;;;;;2208811;59;2407;-70
2022/03/19 16:49:51;;;;;;;;;;;;;;;;;;2209405;59;1967;-71
2022/03/19 16:52:25;;;;;;;;;;;;;;;;;;2209115;59;1295;-70
2022/03/19 16:54:59;;;;;;;;;;;;;;;;;;2209538;59;1266;-70
2022/03/19 16:57:53;;;;;;;;;;;;;;;;;;2209819;67;1240;-71
2022/03/19 17:00:42;;;;;;;;;;;;;;;;;;2206492;59;1627;-69
2022/03/19 17:03:32;;;;;;;;;;;;;;;;;;2209065;67;1289;-69
2022/03/19 17:06:07;;;;;;;;;;;;;;;;;;2209008;67;1935;-69
2022/03/19 17:08:40;;;;;;;;;;;;;;;;;;2209181;59;1208;-69
2022/03/19 17:11:45;;;;;;;;;;;;;;;;;;2209680;67;1274;-69
2022/03/19 17:14:18;;;;;;;;;;;;;;;;;;2203302;59;2146;-69
2022/03/19 17:16:57;;;;;;;;;;;;;;;;;;2209079;59;1294;-69
2022/03/19 17:19:31;;;;;;;;;;;;;;;;;;2209157;67;1226;-69
2022/03/19 17:22:19;;;;;;;;;;;;;;;;;;2208234;59;1959;-69
2022/03/19 17:24:55;;;;;;;;;;;;;;;;;;2208901;59;1200;-69
2022/03/19 17:27:42;;;;;;;;;;;;;;;;;;2208472;67;1109;-70
2022/03/19 17:30:15;;;;;;;;;;;;;;;;;;2209696;67;1219;-69
2022/03/19 17:32:56;;;;;;;;;;;;;;;;;;2210175;67;1380;-69
2022/03/19 17:35:29;;;;;;;;;;;;;;;;;;2210644;67;1074;-69
2022/03/19 17:38:04;;;;;;;;;;;;;;;;;;2209536;67;1201;-69
2022/03/19 17:40:39;;;;;;;;;;;;;;;;;;2208996;59;1949;-69
2022/03/19 17:43:12;;;;;;;;;;;;;;;;;;2207834;59;1851;-69
2022/03/19 17:45:45;;;;;;;;;;;;;;;;;;2209784;67;1973;-69
2022/03/19 17:48:21;;;;;;;;;;;;;;;;;;2209304;59;1898;-70
2022/03/19 17:50:54;;;;;;;;;;;;;;;;;;2209675;67;1345;-70
2022/03/19 17:53:27;;;;;;;;;;;;;;;;;;2209411;67;1101;-69
2022/03/19 17:56:00;;;;;;;;;;;;;;;;;;2208529;59;1161;-69
2022/03/19 17:58:33;;;;;;;;;;;;;;;;;;2209935;67;1238;-69
2022/03/19 18:01:07;;;;;;;;;;;;;;;;;;2209137;59;1713;-69
2022/03/19 18:03:42;;;;;;;;;;;;;;;;;;2209266;67;1199;-69
2022/03/19 18:06:16;;;;;;;;;;;;;;;;;;2210458;67;1929;-70
2022/03/19 18:08:49;;;;;;;;;;;;;;;;;;2209416;59;1253;-69
2022/03/19 18:11:22;;;;;;;;;;;;;;;;;;2209776;67;1139;-72
2022/03/19 18:13:55;;;;;;;;;;;;;;;;;;2209934;67;1248;-69
2022/03/19 18:16:30;;;;;;;;;;;;;;;;;;2209095;67;1064;-69
2022/03/19 18:19:06;;;;;;;;;;;;;;;;;;2210762;67;1090;-69